Flight Track Log - Related Links

Times and Time Zones

All times are in EDT time to prevent confusion due to time zone crossing. See the N830SP flight status page for this flight to view local times or setup timezone preferences in your user account.

Time Position Orientation Groundspeed Altitude Reporting Facility
EDT Latitude Longitude Course Direction KTS MPH feet Rate Location/Type
Wed 03:34:04 PM 34.2000 -118.4833 180° South 78 90 1,500  Level Southern California TRACON
Wed 03:35:04 PM 34.1667 -118.4833 180° South 85 98 2,100 650 Climbing Southern California TRACON
Wed 03:36:04 PM 34.1500 -118.4833 180° South 89 102 2,800 700 Climbing Southern California TRACON
Wed 03:37:04 PM 34.1333 -118.4500 121° Southeast 76 87 3,500 645 Climbing Southern California TRACON
Wed 03:38:05 PM 34.1500 -118.4333 40° Northeast 76 87 4,100 595 Climbing Southern California TRACON
Wed 03:39:05 PM 34.1500 -118.4167 90° East 71 82 4,700 350 Climbing Southern California TRACON
Wed 03:40:05 PM 34.1500 -118.3833 90° East 86 99 4,800 100 Climbing Southern California TRACON
Wed 03:41:05 PM 34.1500 -118.3500 90° East 77 89 4,900 350 Climbing Southern California TRACON
Wed 03:42:05 PM 34.1667 -118.3333 40° Northeast 74 85 5,500 496 Climbing Southern California TRACON
Wed 03:43:06 PM 34.1667 -118.3000 90° East 79 91 5,900 496 Climbing Southern California TRACON
Wed 03:44:06 PM 34.1667 -118.2833 90° East 78 90 6,500 450 Climbing Southern California TRACON
Wed 03:45:06 PM 34.1667 -118.2500 90° East 85 98 6,800 250 Climbing Southern California TRACON
Wed 03:46:06 PM 34.1667 -118.2333 90° East 95 109 7,000 133 Climbing Southern California TRACON
Wed 03:46:36 PM 34.1742 -118.2119 67° East 88 101 7,000 65 Level Los Angeles Center
Wed 03:47:38 PM 34.1708 -118.1764 96° East 97 112 7,100  Climbing Los Angeles Center
Wed 03:48:40 PM 34.1631 -118.1442 106° East 99 114 7,000 242 Descending Los Angeles Center
Wed 03:49:42 PM 34.1583 -118.1156 101° East 94 108 7,600 484 Climbing Los Angeles Center
Wed 03:50:44 PM 34.1581 -118.0958 91° East 82 94 8,000 528 Climbing Los Angeles Center
Wed 03:51:47 PM 34.1586 -118.0592 89° East 78 90 8,700 480 Climbing Los Angeles Center
Wed 03:52:49 PM 34.1564 -118.0342 96° East 75 86 9,000 290 Climbing Los Angeles Center
Wed 03:53:51 PM 34.1536 -118.0067 97° East 81 93 9,300 290 Climbing Los Angeles Center
Wed 03:54:53 PM 34.1503 -117.9789 98° East 85 98 9,600 145 Climbing Los Angeles Center
Wed 03:55:55 PM 34.1478 -117.9461 95° East 96 110 9,600 48 Level Los Angeles Center
Wed 03:56:57 PM 34.1419 -117.9114 101° East 104 120 9,700 44 Climbing Los Angeles Center
Wed 03:58:11 PM 34.1469 -117.8656 82° East 114 131 9,700 -44 Level Los Angeles Center
Wed 03:59:14 PM 34.1492 -117.8192 87° East 116 133 9,600 -48 Descending Los Angeles Center
Wed 04:00:16 PM 34.1478 -117.7825 93° East 111 128 9,600 44 Level Los Angeles Center
Wed 04:01:30 PM 34.1444 -117.7453 96° East 111 128 9,700 44 Climbing Los Angeles Center
Wed 04:02:33 PM 34.1431 -117.7028 92° East 108 124 9,700 -48 Level Los Angeles Center
Wed 04:03:35 PM 34.1483 -117.6572 82° East 113 130 9,600 -48 Descending Los Angeles Center
Wed 04:04:37 PM 34.1536 -117.6178 81° East 118 136 9,600 48 Level Los Angeles Center
Wed 04:05:39 PM 34.1569 -117.5794 84° East 115 132 9,700 48 Climbing Los Angeles Center
Wed 04:06:41 PM 34.1592 -117.5397 86° East 117 135 9,700 -48 Level Los Angeles Center
Wed 04:07:43 PM 34.1586 -117.5003 91° East 119 137 9,600 -97 Descending Los Angeles Center
Wed 04:08:45 PM 34.1558 -117.4619 95° East 115 132 9,500 -48 Descending Los Angeles Center
Wed 04:09:47 PM 34.1525 -117.4186 95° East 111 128 9,500 48 Level Los Angeles Center
Wed 04:10:49 PM 34.1458 -117.3844 103° East 106 122 9,600 48 Climbing Los Angeles Center
Wed 04:11:51 PM 34.1689 -117.3497 51° Northeast 140 161 9,600  Level Los Angeles Center
Wed 04:12:54 PM 34.1967 -117.3172 44° Northeast 139 160 9,600  Level Los Angeles Center
Wed 04:13:56 PM 34.2194 -117.2825 52° Northeast 135 155 9,600 -48 Level Los Angeles Center
Wed 04:14:58 PM 34.2411 -117.2450 55° Northeast 137 158 9,500 -48 Descending Los Angeles Center
Wed 04:16:00 PM 34.2669 -117.2053 52° Northeast 127 146 9,500 48 Level Los Angeles Center
Wed 04:17:02 PM 34.2822 -117.1678 64° Northeast 122 140 9,600 48 Climbing Los Angeles Center
Wed 04:18:04 PM 34.2917 -117.1303 73° East 121 139 9,600  Level Los Angeles Center
Wed 04:20:00 PM 34.2667 -117.0603 90° East  Level FlightAware Approximate
Wed 04:27:00 PM 34.2500 -116.8500 90° East  Level FlightAware Approximate
Wed 04:28:00 PM 34.2638 -116.8560 90° East  Level Estimated
Wed 04:29:00 PM 34.2638 -116.8560 90° East  Level Estimated
Wed 04:30:00 PM 34.2638 -116.8560 90° East  Level Estimated
Wed 04:31:00 PM 34.2638 -116.8560 90° East  Level Estimated
Wed 04:32:00 PM 34.2638 -116.8560 90° East  Level Estimated
Wed 04:33:00 PM 34.2638 -116.8560 90° East  Level Estimated
Wed 04:34:00 PM 34.2638 -116.8560 90° East  Level Estimated
Wed 04:35:00 PM 34.2638 -116.8560 90° East  Level Estimated
Wed 04:36:00 PM 34.2638 -116.8560 90° East  Level Estimated
Wed 04:37:00 PM 34.2638 -116.8560 90° East  Level Estimated
Wed 04:38:00 PM 34.2638 -116.8560 90° East  Level Estimated
Wed 04:39:00 PM 34.2638 -116.8560 90° East  Level Estimated

Login

Don't have an account? Register now (free) for customized features, flight alerts, and more!